Airfield :
LOGIN :

Register | Disclaimer

   EN    FR    IT 

 










Legend :    VFR   Marginal VFR   IFR   Intensive IFR   Very Intensive IFR
Visi :
Ceiling :
>= 8 km
>= 3000ft
5 to 8 km
1000 to 3000 ft
1500m to 5 km
500 to 1000 ft
800 to 1500m
200 to 500 ft
< 800m
< 200 ft
Symbols :   Thunderstorms  Fog  Heavy snow  Heavy precipitations  Wind > 20 kt
SIGMETs :     Misc.  Thunderstorms  Icing  Turbulence  Mountain Waves  Volcanic Ashes






- Airport Elevation : 267 ft


EGDR - Culdrose Navy

CURRENT METAR :
  • 191720Z 22016G29KT 9999 FEW007 SCT012 BKN030 09/08 Q1017 NOSIG RMK GRN GRN

EXPIRED METARs :
  • 191650Z 23018G29KT 9999 FEW005 SCT007 BKN040 09/08 Q1018 GRN NOSIG RMK GRN GRN
  • 191626Z 23018G29KT 9999 FEW005 SCT007 BKN040 09/08 Q1018 GRN NOSIG RMK GRN GRN
  • 191550Z 23020G32KT 9999 FEW005 SCT007 BKN030 09/09 Q1018 GRN NOSIG RMK GRN GRN
  • 191524Z 23018G31KT 9999 -RA FEW005 SCT007 BKN012 09/09 Q1019 GRN NOSIG RMK GRN GRN
  • 191450Z 23018G29KT 5000 -RA FEW005 SCT007 BKN012 09/08 Q1019 GRN TEMPO 4000 -RADZ SCT010 RMK BLU TEMPO GRN

TAF AMD TAF EGDR
Valid from the 19 at 15:00 until the 20 at 00:00 UTC


191612Z 1915/1924 22020G33KT 9999 FEW010 SCT025
TEMPO 1915/1920 SCT020
PROB40
TEMPO 1915/1920 6000 -RA BKN010
BECMG 1919/1921 FEW006 SCT010
PROB40
TEMPO 1918/1924 4000 -RADZ FEW004 BKN006



MET'MAP, your aeronautical weather chart ! - Copyright ORBIFLY December 2007 - Disclaimer

ORBIFLY MET'MAP TEAM :

Programming & Development : Alexandra Zaïnal
Concept & original design : Baudouin d'Aumeries
Assistance for programming : Marc-Olivier Méhu
Technical & hardware support : Manuel Goepfert

Contact : metmap@orbifly.com




SOURCES & CREDITS :

   NOAA